createdAt,value
2019-03-30T00:01:39.630Z,4.08
2019-03-30T00:04:08.047Z,4.20
2019-03-30T00:06:36.491Z,4.20
2019-03-30T00:09:08.212Z,4.11
2019-03-30T00:11:36.733Z,4.08
2019-03-30T00:14:05.219Z,4.08
2019-03-30T00:16:33.669Z,4.03
2019-03-30T00:19:02.085Z,3.63
2019-03-30T00:21:30.532Z,3.52
2019-03-30T00:23:58.950Z,3.52
2019-03-30T00:26:27.399Z,3.58
2019-03-30T00:28:55.812Z,3.60
2019-03-30T00:31:24.268Z,3.59
2019-03-30T00:33:52.751Z,3.56
2019-03-30T00:36:21.202Z,3.67
2019-03-30T00:38:49.616Z,3.67
2019-03-30T00:41:18.137Z,3.63
2019-03-30T00:43:46.554Z,3.63
2019-03-30T00:46:14.999Z,3.56
2019-03-30T00:48:43.416Z,3.54
2019-03-30T00:51:11.866Z,3.42
2019-03-30T00:53:40.282Z,3.38
2019-03-30T00:56:08.731Z,3.38
2019-03-30T00:58:37.171Z,3.43
2019-03-30T01:01:05.680Z,3.41
2019-03-30T01:03:34.107Z,3.32
2019-03-30T01:06:02.551Z,3.19
2019-03-30T01:08:30.966Z,3.22
2019-03-30T01:10:59.412Z,3.27
2019-03-30T01:13:27.836Z,3.17
2019-03-30T01:15:56.276Z,3.13
2019-03-30T01:18:24.701Z,3.03
2019-03-30T01:20:53.148Z,2.96
2019-03-30T01:23:21.569Z,2.91
2019-03-30T01:25:49.986Z,2.94
2019-03-30T01:28:18.438Z,2.89
2019-03-30T01:30:47.180Z,2.89
2019-03-30T01:33:15.687Z,2.81
2019-03-30T01:35:44.097Z,2.82
2019-03-30T01:38:12.541Z,2.87
2019-03-30T01:40:40.953Z,2.96
2019-03-30T01:43:09.407Z,3.05
2019-03-30T01:45:37.897Z,2.98
2019-03-30T01:48:06.343Z,2.96
2019-03-30T01:50:34.756Z,2.93
2019-03-30T01:53:03.199Z,2.88
2019-03-30T01:55:31.681Z,2.82
2019-03-30T01:58:00.128Z,2.74
2019-03-30T02:00:28.543Z,2.74
2019-03-30T02:02:56.990Z,2.65
2019-03-30T02:05:25.473Z,2.52
2019-03-30T02:07:53.927Z,2.38
2019-03-30T02:10:42.548Z,2.44
2019-03-30T02:13:11.167Z,2.53
2019-03-30T02:15:39.583Z,2.60
2019-03-30T02:18:08.296Z,2.64
2019-03-30T02:20:45.380Z,2.66
2019-03-30T02:23:20.779Z,2.69
2019-03-30T02:25:49.197Z,2.69
2019-03-30T02:28:17.639Z,2.65
2019-03-30T02:30:46.060Z,2.59
2019-03-30T02:33:14.626Z,2.58
2019-03-30T02:35:42.982Z,2.52
2019-03-30T02:38:11.434Z,2.47
2019-03-30T02:40:39.841Z,2.45
2019-03-30T02:43:08.354Z,2.34
2019-03-30T02:45:36.832Z,2.30
2019-03-30T02:48:05.343Z,2.32
2019-03-30T02:50:48.576Z,2.30
2019-03-30T02:53:04.020Z,2.34
2019-03-30T02:55:32.450Z,2.37
2019-03-30T02:58:00.851Z,2.42
2019-03-30T03:00:29.284Z,2.39
2019-03-30T03:02:57.707Z,2.34
2019-03-30T03:05:26.217Z,2.24
2019-03-30T03:07:54.639Z,2.14
2019-03-30T03:10:23.319Z,2.16
2019-03-30T03:12:51.739Z,2.18
2019-03-30T03:15:20.180Z,2.18
2019-03-30T03:17:48.598Z,2.20
2019-03-30T03:20:17.027Z,2.16
2019-03-30T03:22:45.441Z,2.06
2019-03-30T03:25:14.122Z,1.90
2019-03-30T03:27:42.530Z,1.92
2019-03-30T03:30:11.366Z,1.94
2019-03-30T03:32:39.760Z,1.85
2019-03-30T03:35:08.755Z,1.77
2019-03-30T03:37:45.531Z,1.69
2019-03-30T03:40:09.078Z,1.65
2019-03-30T03:42:37.634Z,1.65
2019-03-30T03:45:07.813Z,1.65
2019-03-30T03:47:36.292Z,1.67
2019-03-30T03:50:05.673Z,1.68
2019-03-30T03:52:34.419Z,1.72
2019-03-30T03:55:03.033Z,1.75
2019-03-30T03:57:34.367Z,1.73
2019-03-30T04:00:03.734Z,1.76
2019-03-30T04:02:35.332Z,1.83
2019-03-30T04:05:05.120Z,2.07
2019-03-30T04:07:35.009Z,1.74
2019-03-30T04:10:06.192Z,1.54
2019-03-30T04:12:36.626Z,1.38
2019-03-30T04:15:07.481Z,1.29
2019-03-30T04:17:36.038Z,1.22
2019-03-30T04:20:06.200Z,1.18
2019-03-30T04:22:34.710Z,1.12
2019-03-30T04:25:03.703Z,1.06
2019-03-30T04:27:32.165Z,1.03
2019-03-30T04:30:00.676Z,0.98
2019-03-30T04:32:29.200Z,0.92
2019-03-30T04:34:57.606Z,0.86
2019-03-30T04:37:26.075Z,0.82
2019-03-30T04:39:54.482Z,0.79
2019-03-30T04:42:22.931Z,0.76
2019-03-30T04:44:51.342Z,0.74
2019-03-30T04:47:19.801Z,0.69
2019-03-30T04:49:48.211Z,0.71
2019-03-30T04:52:16.660Z,0.69
2019-03-30T04:54:45.071Z,0.67
2019-03-30T04:57:13.512Z,0.65
2019-03-30T04:59:41.932Z,0.63
2019-03-30T05:02:10.378Z,0.60
2019-03-30T05:04:38.801Z,0.58
2019-03-30T05:07:07.251Z,0.57
2019-03-30T05:09:35.666Z,0.57
2019-03-30T05:12:04.186Z,0.60
2019-03-30T05:14:32.600Z,0.64
2019-03-30T05:17:01.061Z,0.71
2019-03-30T05:19:29.459Z,0.75
2019-03-30T05:22:11.630Z,0.76
2019-03-30T05:24:28.037Z,0.76
2019-03-30T05:26:56.484Z,0.79
2019-03-30T05:29:24.897Z,0.77
2019-03-30T05:31:53.346Z,0.82
2019-03-30T05:34:21.766Z,0.86
2019-03-30T05:36:50.186Z,1.02
2019-03-30T05:39:18.632Z,1.22
2019-03-30T05:41:47.047Z,1.46
2019-03-30T05:44:15.495Z,1.69
2019-03-30T05:46:43.917Z,1.94
2019-03-30T05:49:12.367Z,2.26
2019-03-30T05:51:40.852Z,2.61
2019-03-30T05:54:09.302Z,2.80
2019-03-30T05:56:37.715Z,3.05
2019-03-30T05:59:06.157Z,3.25
2019-03-30T06:01:34.577Z,3.43
2019-03-30T06:04:03.078Z,3.65
2019-03-30T06:06:31.512Z,3.84
2019-03-30T06:08:59.967Z,3.96
2019-03-30T06:11:28.386Z,4.11
2019-03-30T06:13:56.833Z,4.31
2019-03-30T06:16:25.257Z,4.56
2019-03-30T06:18:53.706Z,4.56
2019-03-30T06:21:22.128Z,4.54
2019-03-30T06:23:50.570Z,4.54
2019-03-30T06:26:18.990Z,4.54
2019-03-30T06:28:47.442Z,4.49
2019-03-30T06:31:15.865Z,4.38
2019-03-30T06:33:44.305Z,4.38
2019-03-30T06:36:12.722Z,4.43
2019-03-30T06:38:41.510Z,4.77
2019-03-30T06:41:09.939Z,5.01
2019-03-30T06:43:38.390Z,5.01
2019-03-30T06:46:06.802Z,5.27
2019-03-30T06:48:36.241Z,5.60
2019-03-30T06:51:04.854Z,5.60
2019-03-30T06:53:33.324Z,5.98
2019-03-30T06:56:01.819Z,5.98
2019-03-30T06:58:30.825Z,6.48
2019-03-30T07:00:59.421Z,6.48
2019-03-30T07:03:27.912Z,6.82
2019-03-30T07:05:57.023Z,7.07
2019-03-30T07:08:26.986Z,7.26
2019-03-30T07:10:55.808Z,7.38
2019-03-30T07:13:24.389Z,7.53
2019-03-30T07:15:53.216Z,7.63
2019-03-30T07:18:21.702Z,7.76
2019-03-30T07:20:50.225Z,7.90
2019-03-30T07:23:18.725Z,8.05
2019-03-30T07:25:47.175Z,8.23
2019-03-30T07:28:15.590Z,8.35
2019-03-30T07:30:44.035Z,8.56
2019-03-30T07:33:12.458Z,8.72
2019-03-30T07:35:40.977Z,8.91
2019-03-30T07:38:09.405Z,9.03
2019-03-30T07:40:37.848Z,9.18
2019-03-30T07:43:06.268Z,9.28
2019-03-30T07:45:34.784Z,9.52
2019-03-30T07:48:03.205Z,9.68
2019-03-30T07:50:31.718Z,9.82
2019-03-30T07:53:00.134Z,10.08
2019-03-30T07:55:28.554Z,10.13
2019-03-30T07:57:57.032Z,10.27
2019-03-30T08:00:30.592Z,10.51
2019-03-30T08:02:55.673Z,10.61
2019-03-30T08:05:24.107Z,10.68
2019-03-30T08:07:52.556Z,10.76
2019-03-30T08:10:21.039Z,10.94
2019-03-30T08:12:49.487Z,11.17
2019-03-30T08:15:17.979Z,11.29
2019-03-30T08:17:46.431Z,11.49
2019-03-30T08:20:15.186Z,11.58
2019-03-30T08:22:43.632Z,11.75
2019-03-30T08:25:12.123Z,11.83
2019-03-30T08:27:40.578Z,12.08
2019-03-30T08:30:09.230Z,12.33
2019-03-30T08:32:37.684Z,12.54
2019-03-30T08:35:07.344Z,12.64
2019-03-30T08:37:35.805Z,12.78
2019-03-30T08:40:04.770Z,12.85
2019-03-30T08:42:33.223Z,13.03
2019-03-30T08:45:01.645Z,13.10
2019-03-30T08:47:30.085Z,13.18
2019-03-30T08:49:58.512Z,13.31
2019-03-30T08:52:26.960Z,13.49
2019-03-30T08:54:55.389Z,13.61
2019-03-30T08:57:23.837Z,13.68
2019-03-30T08:59:52.264Z,13.79
2019-03-30T09:02:20.882Z,13.89
2019-03-30T09:04:49.305Z,13.95
2019-03-30T09:07:17.754Z,14.06
2019-03-30T09:09:46.184Z,14.25
2019-03-30T09:12:14.612Z,14.41
2019-03-30T09:14:43.066Z,14.57
2019-03-30T09:17:11.487Z,14.71
2019-03-30T09:19:39.937Z,14.79
2019-03-30T09:22:08.364Z,14.88
2019-03-30T09:24:36.808Z,15.04
2019-03-30T09:27:05.227Z,15.18
2019-03-30T09:29:33.688Z,15.30
2019-03-30T09:32:13.806Z,15.39
2019-03-30T09:34:32.351Z,15.49
2019-03-30T09:37:00.771Z,15.46
2019-03-30T09:39:29.214Z,15.59
2019-03-30T09:41:57.636Z,15.68
2019-03-30T09:44:26.089Z,15.79
2019-03-30T09:46:54.518Z,15.86
2019-03-30T09:49:22.955Z,15.91
2019-03-30T09:51:52.266Z,15.98
2019-03-30T09:54:23.881Z,16.00
2019-03-30T09:56:50.850Z,16.04
2019-03-30T09:59:19.298Z,16.09
2019-03-30T10:01:47.713Z,16.16
2019-03-30T10:04:16.162Z,16.26
2019-03-30T10:06:44.567Z,16.45
2019-03-30T10:09:13.005Z,16.53
2019-03-30T10:11:41.417Z,16.51
2019-03-30T10:14:09.856Z,16.51
2019-03-30T10:16:38.282Z,16.64
2019-03-30T10:19:06.720Z,16.75
2019-03-30T10:21:35.133Z,16.85
2019-03-30T10:24:03.553Z,17.01
2019-03-30T10:26:31.993Z,16.94
2019-03-30T10:29:00.396Z,17.06
2019-03-30T10:31:28.844Z,17.14
2019-03-30T10:33:57.251Z,17.29
2019-03-30T10:36:25.684Z,17.42
2019-03-30T10:38:54.111Z,17.54
2019-03-30T10:41:22.551Z,17.71
2019-03-30T10:43:50.969Z,17.80
2019-03-30T10:46:19.415Z,17.96
2019-03-30T10:48:47.834Z,18.14
2019-03-30T10:51:16.340Z,18.12
2019-03-30T10:53:44.760Z,17.99
2019-03-30T10:56:13.194Z,18.24
2019-03-30T10:58:41.606Z,18.51
2019-03-30T11:01:10.048Z,18.85
2019-03-30T11:03:38.458Z,19.24
2019-03-30T11:06:06.908Z,19.18
2019-03-30T11:08:35.328Z,18.93
2019-03-30T11:11:03.833Z,18.66
2019-03-30T11:13:32.258Z,18.33
2019-03-30T11:16:00.702Z,18.39
2019-03-30T11:18:29.116Z,18.52
2019-03-30T11:20:57.554Z,18.62
2019-03-30T11:23:25.963Z,19.01
2019-03-30T11:25:54.428Z,19.36
2019-03-30T11:28:22.816Z,19.49
2019-03-30T11:30:51.235Z,19.37
2019-03-30T11:33:19.740Z,19.40
2019-03-30T11:35:48.225Z,19.15
2019-03-30T11:38:16.672Z,18.66
2019-03-30T11:40:45.086Z,18.40
2019-03-30T11:43:13.529Z,18.41
2019-03-30T11:45:42.020Z,18.48
2019-03-30T11:48:10.462Z,18.65
2019-03-30T11:50:38.870Z,18.46
2019-03-30T11:53:07.383Z,18.35
2019-03-30T11:55:35.793Z,18.46
2019-03-30T11:58:04.237Z,18.30
2019-03-30T12:00:32.723Z,18.41
2019-03-30T12:03:01.176Z,18.45
2019-03-30T12:05:29.589Z,18.42
2019-03-30T12:07:58.096Z,18.56
2019-03-30T12:10:26.517Z,18.44
2019-03-30T12:12:54.957Z,18.50
2019-03-30T12:15:23.377Z,18.59
2019-03-30T12:17:51.862Z,18.46
2019-03-30T12:20:20.307Z,18.27
2019-03-30T12:22:48.724Z,18.37
2019-03-30T12:25:17.147Z,18.35
2019-03-30T12:27:45.593Z,18.40
2019-03-30T12:30:14.073Z,18.41
2019-03-30T12:32:42.516Z,18.48
2019-03-30T12:35:11.009Z,18.53
2019-03-30T12:37:39.459Z,18.52
2019-03-30T12:40:08.016Z,18.56
2019-03-30T12:42:36.520Z,18.63
2019-03-30T12:45:06.578Z,18.66
2019-03-30T12:47:34.995Z,18.54
2019-03-30T12:50:04.374Z,18.35
2019-03-30T12:52:32.790Z,18.43
2019-03-30T12:55:01.240Z,18.75
2019-03-30T12:57:29.653Z,18.66
2019-03-30T12:59:59.331Z,18.59
2019-03-30T13:02:27.953Z,18.59
2019-03-30T13:04:56.399Z,18.53
2019-03-30T13:07:24.819Z,18.58
2019-03-30T13:09:53.257Z,18.61
2019-03-30T13:12:21.668Z,18.55
2019-03-30T13:14:50.115Z,18.63
2019-03-30T13:17:18.526Z,18.60
2019-03-30T13:19:46.961Z,18.50
2019-03-30T13:22:15.388Z,18.64
2019-03-30T13:24:43.816Z,18.64
2019-03-30T13:27:13.124Z,18.62
2019-03-30T13:29:41.753Z,18.60
2019-03-30T13:32:10.165Z,18.59
2019-03-30T13:34:38.623Z,18.58
2019-03-30T13:37:17.783Z,18.63
2019-03-30T13:39:46.486Z,18.58
2019-03-30T13:42:14.896Z,18.64
2019-03-30T13:44:43.431Z,18.61
2019-03-30T13:47:11.841Z,18.62
2019-03-30T13:49:40.274Z,18.55
2019-03-30T13:52:08.687Z,18.59
2019-03-30T13:54:38.743Z,18.65
2019-03-30T13:57:07.425Z,18.64
2019-03-30T13:59:35.895Z,18.60
2019-03-30T14:02:04.309Z,18.58
2019-03-30T14:04:32.722Z,18.60
2019-03-30T14:07:01.173Z,18.64
2019-03-30T14:09:29.582Z,18.58
2019-03-30T14:11:58.025Z,18.65
2019-03-30T14:14:26.451Z,18.72
2019-03-30T14:16:54.902Z,18.68
2019-03-30T14:19:23.315Z,18.69
2019-03-30T14:21:51.761Z,18.55
2019-03-30T14:24:20.166Z,18.47
2019-03-30T14:26:48.610Z,18.58
2019-03-30T14:29:17.026Z,18.61
2019-03-30T14:31:45.494Z,18.68
2019-03-30T14:34:13.957Z,18.73
2019-03-30T14:36:42.406Z,18.74
2019-03-30T14:39:10.833Z,18.54
2019-03-30T14:41:39.267Z,18.51
2019-03-30T14:44:07.693Z,18.56
2019-03-30T14:46:36.140Z,18.56
2019-03-30T14:49:04.619Z,18.56
2019-03-30T14:51:33.074Z,18.55
2019-03-30T14:54:01.495Z,18.46
2019-03-30T14:56:29.940Z,18.45
2019-03-30T14:59:09.378Z,18.39
2019-03-30T15:01:28.519Z,18.42
2019-03-30T15:03:56.943Z,18.31
2019-03-30T15:06:25.388Z,18.30
2019-03-30T15:08:53.796Z,18.35
2019-03-30T15:11:22.242Z,18.28
2019-03-30T15:13:50.660Z,18.27
2019-03-30T15:16:19.183Z,18.28
2019-03-30T15:18:47.598Z,18.34
2019-03-30T15:21:16.126Z,18.35
2019-03-30T15:23:44.535Z,18.36
2019-03-30T15:26:12.981Z,18.34
2019-03-30T15:28:42.887Z,18.38
2019-03-30T15:31:11.617Z,18.22
2019-03-30T15:33:40.029Z,18.17
2019-03-30T15:36:08.510Z,18.13
2019-03-30T15:38:36.931Z,18.13
2019-03-30T15:41:05.358Z,18.03
2019-03-30T15:43:38.639Z,17.94
2019-03-30T15:46:04.012Z,17.94
2019-03-30T15:48:32.524Z,17.86
2019-03-30T15:51:01.012Z,17.83
2019-03-30T15:53:29.477Z,17.77
2019-03-30T15:55:57.979Z,17.77
2019-03-30T15:58:26.422Z,17.77
2019-03-30T16:00:55.088Z,17.76
2019-03-30T16:03:23.593Z,17.81
2019-03-30T16:05:52.097Z,17.73
2019-03-30T16:08:20.537Z,17.74
2019-03-30T16:10:52.111Z,17.73
2019-03-30T16:13:19.283Z,17.64
2019-03-30T16:15:47.689Z,17.46
2019-03-30T16:18:16.134Z,17.39
2019-03-30T16:20:44.559Z,17.41
2019-03-30T16:23:12.997Z,17.41
2019-03-30T16:25:41.401Z,17.41
2019-03-30T16:28:09.841Z,17.43
2019-03-30T16:30:38.258Z,17.47
2019-03-30T16:33:06.765Z,17.48
2019-03-30T16:35:35.252Z,17.47
2019-03-30T16:38:03.696Z,17.40
2019-03-30T16:40:32.111Z,17.25
2019-03-30T16:43:00.556Z,17.06
2019-03-30T16:45:28.980Z,16.99
2019-03-30T16:47:57.413Z,16.88
2019-03-30T16:50:25.836Z,16.83
2019-03-30T16:52:54.254Z,16.82
2019-03-30T16:55:22.690Z,16.84
2019-03-30T16:57:51.112Z,16.87
2019-03-30T17:00:19.629Z,16.86
2019-03-30T17:02:48.042Z,16.79
2019-03-30T17:05:16.560Z,16.64
2019-03-30T17:07:44.976Z,16.46
2019-03-30T17:10:13.599Z,16.30
2019-03-30T17:12:42.014Z,16.10
2019-03-30T17:15:10.838Z,15.90
2019-03-30T17:17:39.315Z,15.73
2019-03-30T17:20:08.641Z,15.58
2019-03-30T17:22:37.104Z,15.43
2019-03-30T17:25:07.115Z,15.23
2019-03-30T17:27:36.271Z,15.06
2019-03-30T17:30:07.728Z,14.98
2019-03-30T17:32:36.144Z,14.85
2019-03-30T17:35:06.222Z,14.71
2019-03-30T17:37:34.640Z,14.60
2019-03-30T17:40:03.698Z,14.47
2019-03-30T17:42:32.119Z,14.31
2019-03-30T17:45:00.569Z,14.12
2019-03-30T17:47:28.981Z,13.93
2019-03-30T17:49:57.428Z,13.74
2019-03-30T17:52:25.844Z,13.55
2019-03-30T17:54:54.368Z,13.37
2019-03-30T17:57:22.791Z,13.22
2019-03-30T17:59:51.236Z,13.08
2019-03-30T18:02:22.954Z,12.95
2019-03-30T18:04:49.902Z,12.92
2019-03-30T18:07:18.397Z,12.96
2019-03-30T18:09:46.845Z,13.03
2019-03-30T18:12:15.265Z,13.08
2019-03-30T18:14:43.709Z,13.08
2019-03-30T18:17:12.133Z,13.10
2019-03-30T18:19:40.583Z,13.10
2019-03-30T18:22:09.008Z,12.99
2019-03-30T18:24:37.427Z,12.93
2019-03-30T18:27:05.877Z,12.90
2019-03-30T18:29:34.295Z,12.74
2019-03-30T18:32:03.114Z,12.60
2019-03-30T18:34:31.705Z,12.49
2019-03-30T18:37:00.221Z,12.36
2019-03-30T18:39:29.582Z,12.23
2019-03-30T18:41:58.035Z,12.16
2019-03-30T18:44:26.826Z,12.07
2019-03-30T18:46:55.288Z,11.96
2019-03-30T18:49:23.772Z,11.81
2019-03-30T18:51:52.220Z,11.58
2019-03-30T18:54:20.804Z,11.40
2019-03-30T18:56:49.254Z,11.28
2019-03-30T18:59:17.673Z,11.21
2019-03-30T19:01:46.123Z,11.09
2019-03-30T19:04:14.616Z,10.96
2019-03-30T19:06:43.073Z,10.81
2019-03-30T19:09:11.487Z,10.61
2019-03-30T19:11:39.938Z,10.43
2019-03-30T19:14:08.506Z,10.40
2019-03-30T19:16:37.025Z,10.48
2019-03-30T19:19:05.447Z,10.57
2019-03-30T19:21:33.898Z,10.67
2019-03-30T19:24:02.313Z,10.64
2019-03-30T19:26:30.737Z,10.57
2019-03-30T19:28:59.190Z,10.48
2019-03-30T19:31:27.676Z,10.20
2019-03-30T19:33:56.135Z,9.90
2019-03-30T19:36:24.548Z,9.71
2019-03-30T19:38:52.990Z,9.59
2019-03-30T19:41:21.414Z,9.57
2019-03-30T19:43:49.932Z,9.55
2019-03-30T19:46:18.343Z,9.48
2019-03-30T19:48:46.794Z,9.48
2019-03-30T19:51:15.210Z,9.53
2019-03-30T19:53:43.653Z,9.54
2019-03-30T19:56:12.075Z,9.58
2019-03-30T19:58:40.524Z,9.76
2019-03-30T20:01:09.010Z,9.92
2019-03-30T20:03:37.459Z,10.13
2019-03-30T20:06:05.875Z,10.80
2019-03-30T20:08:34.393Z,11.21
2019-03-30T20:11:03.058Z,11.61
2019-03-30T20:13:31.513Z,11.89
2019-03-30T20:15:59.932Z,12.04
2019-03-30T20:18:28.376Z,12.15
2019-03-30T20:20:56.864Z,12.18
2019-03-30T20:23:25.311Z,12.25
2019-03-30T20:25:53.731Z,12.33
2019-03-30T20:28:22.199Z,12.49
2019-03-30T20:30:51.055Z,12.66
2019-03-30T20:33:19.505Z,12.72
2019-03-30T20:35:47.923Z,12.67
2019-03-30T20:38:16.429Z,12.73
2019-03-30T20:40:44.834Z,12.76
2019-03-30T20:43:13.259Z,12.74
2019-03-30T20:45:41.705Z,12.76
2019-03-30T20:48:10.127Z,12.73
2019-03-30T20:50:38.572Z,12.74
2019-03-30T20:53:07.077Z,12.69
2019-03-30T20:55:35.687Z,12.63
2019-03-30T20:58:04.257Z,12.59
2019-03-30T21:00:32.715Z,12.53
2019-03-30T21:03:01.136Z,12.48
2019-03-30T21:05:29.595Z,12.41
2019-03-30T21:07:58.020Z,12.39
2019-03-30T21:10:26.477Z,12.37
2019-03-30T21:12:54.904Z,12.36
2019-03-30T21:15:23.356Z,12.35
2019-03-30T21:17:51.781Z,12.32
2019-03-30T21:20:20.225Z,12.26
2019-03-30T21:22:48.654Z,12.22
2019-03-30T21:25:17.109Z,12.18
2019-03-30T21:27:45.549Z,12.18
2019-03-30T21:30:14.863Z,12.15
2019-03-30T21:32:43.285Z,12.12
2019-03-30T21:35:11.777Z,12.10
2019-03-30T21:37:40.230Z,12.14
2019-03-30T21:40:08.717Z,12.09
2019-03-30T21:42:37.166Z,12.08
2019-03-30T21:45:07.331Z,12.02
2019-03-30T21:47:35.783Z,11.89
2019-03-30T21:50:06.356Z,11.74
2019-03-30T21:52:34.810Z,11.70
2019-03-30T21:55:03.407Z,11.71
2019-03-30T21:57:31.860Z,11.66
2019-03-30T22:00:10.032Z,11.57
2019-03-30T22:02:30.532Z,11.45
2019-03-30T22:04:58.966Z,11.28
2019-03-30T22:07:27.418Z,11.10
2019-03-30T22:09:56.505Z,11.00
2019-03-30T22:12:24.957Z,10.83
2019-03-30T22:14:53.377Z,10.62
2019-03-30T22:17:21.832Z,10.50
2019-03-30T22:19:50.256Z,10.45
2019-03-30T22:22:18.708Z,10.37
2019-03-30T22:24:47.129Z,10.26
2019-03-30T22:27:15.584Z,10.13
2019-03-30T22:29:44.007Z,9.94
2019-03-30T22:32:12.455Z,9.82
2019-03-30T22:34:40.880Z,9.72
2019-03-30T22:37:09.328Z,9.65
2019-03-30T22:39:37.749Z,9.64
2019-03-30T22:42:06.199Z,9.57
2019-03-30T22:44:34.619Z,9.45
2019-03-30T22:47:03.044Z,9.36
2019-03-30T22:49:31.497Z,9.32
2019-03-30T22:51:59.926Z,9.26
2019-03-30T22:54:28.366Z,9.20
2019-03-30T22:56:56.783Z,9.13
2019-03-30T22:59:25.234Z,9.06
2019-03-30T23:01:53.727Z,9.00
2019-03-30T23:04:22.180Z,8.95
2019-03-30T23:06:50.604Z,8.89
2019-03-30T23:09:19.056Z,8.83
2019-03-30T23:11:47.475Z,8.77
2019-03-30T23:14:15.920Z,8.86
2019-03-30T23:16:44.336Z,8.87
2019-03-30T23:19:12.788Z,8.83
2019-03-30T23:21:41.210Z,8.76
2019-03-30T23:24:09.666Z,8.73
2019-03-30T23:26:38.088Z,8.66
2019-03-30T23:29:06.580Z,8.59
2019-03-30T23:31:35.047Z,8.61
2019-03-30T23:34:03.506Z,8.64
2019-03-30T23:36:31.921Z,8.65
2019-03-30T23:39:00.362Z,8.82
2019-03-30T23:41:28.788Z,8.84
2019-03-30T23:43:57.269Z,8.72
2019-03-30T23:46:25.684Z,8.63
2019-03-30T23:48:54.102Z,8.64
2019-03-30T23:51:22.624Z,8.62
2019-03-30T23:53:51.055Z,8.54
2019-03-30T23:56:26.053Z,8.42
2019-03-30T23:58:54.538Z,8.34
